Time;durP1;ratioP1;P1;durP2;ratioP2;P2;SDS_P1;SDS_P2;PMS_P1;PMS_P2;Temp;Humidity;BMP_temperature;BMP_pressure;BME280_temperature;BME280_humidity;BME280_pressure;Samples;Min_cycle;Max_cycle;Signal;HPM_P1;HPM_P2
2022/03/27 00:01:02;;;;;;;20.73;6.83;;;;;;;-145.69;45.85;72781.59;5070756;28;20260;-78
2022/03/27 00:03:28;;;;;;;25.73;7.10;;;;;;;-145.69;45.77;72775.63;5071420;28;20201;-79
2022/03/27 00:05:58;;;;;;;25.03;7.53;;;;;;;-145.69;46.15;72771.66;5070268;28;20628;-78
2022/03/27 00:08:24;;;;;;;22.83;7.97;;;;;;;-145.69;44.75;72765.69;5071834;28;20230;-78
2022/03/27 00:13:39;;;;;;;25.27;6.93;;;;;;;-145.69;45.75;72783.59;5075437;28;20245;-78
2022/03/27 00:16:06;;;;;;;18.27;6.90;;;;;;;-145.69;44.92;72787.56;5075352;28;20237;-78
2022/03/27 00:18:35;;;;;;;25.20;7.13;;;;;;;-145.69;45.18;72763.69;5075743;28;20202;-78
2022/03/27 00:21:03;;;;;;;21.20;7.23;;;;;;;-145.69;44.89;72759.72;5075724;28;20657;-78
2022/03/27 00:23:29;;;;;;;23.87;7.63;;;;;;;-145.69;44.74;72747.78;5075855;28;20206;-78
2022/03/27 00:25:56;;;;;;;25.53;7.40;;;;;;;-145.69;44.52;72745.78;5075328;28;20631;-78
2022/03/27 00:28:25;;;;;;;29.07;7.57;;;;;;;-145.69;45.04;72767.69;5075630;28;20209;-78
2022/03/27 00:30:55;;;;;;;25.47;7.67;;;;;;;-145.69;45.48;72789.56;5075830;28;20226;-78
2022/03/27 00:33:22;;;;;;;18.67;7.83;;;;;;;-145.69;45.37;72777.63;5075764;28;20199;-78
2022/03/27 00:35:48;;;;;;;23.20;6.80;;;;;;;-145.69;45.47;72779.63;5075757;28;20203;-78
2022/03/27 00:38:17;;;;;;;27.07;7.43;;;;;;;-145.69;45.33;72777.63;5075101;28;20195;-78
2022/03/27 00:40:44;;;;;;;22.93;6.77;;;;;;;-145.69;45.37;72781.59;5075354;28;20289;-78
2022/03/27 00:43:10;;;;;;;29.13;7.20;;;;;;;-145.69;45.38;72779.63;5075729;28;20276;-78
2022/03/27 00:45:39;;;;;;;19.87;7.00;;;;;;;-145.69;46.40;72811.47;5075585;28;20233;-78
2022/03/27 00:48:10;;;;;;;20.63;7.77;;;;;;;-145.69;46.54;72813.47;5074547;28;20253;-78
2022/03/27 00:50:37;;;;;;;21.77;7.87;;;;;;;-145.69;46.64;72801.50;5075204;28;20260;-78
2022/03/27 00:53:04;;;;;;;22.63;6.50;;;;;;;-145.69;45.95;72785.59;5075165;28;20202;-78
2022/03/27 00:55:33;;;;;;;20.80;6.43;;;;;;;-145.69;47.04;72803.50;5074975;28;20206;-77
2022/03/27 00:57:59;;;;;;;27.83;7.47;;;;;;;-145.69;46.88;72823.41;5075402;28;20690;-78
2022/03/27 01:00:48;;;;;;;21.33;6.83;;;;;;;-145.69;46.50;72823.41;5075045;28;20187;-77
2022/03/27 01:03:23;;;;;;;36.57;7.20;;;;;;;-145.69;46.13;72807.47;5071131;28;20206;-77
2022/03/27 01:05:51;;;;;;;20.47;6.90;;;;;;;-145.69;47.63;72833.38;5074882;28;20311;-77
2022/03/27 01:09:35;;;;;;;28.03;8.13;;;;;;;-145.69;47.42;72835.34;5075097;28;20199;-77
2022/03/27 01:11:12;;;;;;;22.37;7.63;;;;;;;-145.69;48.64;72839.34;5074750;28;20268;-77
2022/03/27 01:13:42;;;;;;;22.57;7.30;;;;;;;-145.69;47.99;72841.31;5074909;28;20612;-77
2022/03/27 01:16:15;;;;;;;25.20;7.73;;;;;;;-145.69;48.83;72845.31;5074716;28;20230;-77
2022/03/27 01:18:52;;;;;;;21.60;7.43;;;;;;;-145.69;49.01;72871.19;5069160;28;20196;-77
2022/03/27 01:21:23;;;;;;;28.67;7.63;;;;;;;-145.69;49.42;72857.25;5071122;28;20732;-77
2022/03/27 01:23:51;;;;;;;24.47;7.83;;;;;;;-145.69;49.40;72847.28;5074654;28;20592;-78
2022/03/27 01:26:18;;;;;;;27.73;7.80;;;;;;;-145.69;48.86;72831.38;5074570;28;20325;-77
2022/03/27 01:28:46;;;;;;;28.10;7.77;;;;;;;-145.69;49.50;72835.34;5074429;28;20659;-77
2022/03/27 01:31:13;;;;;;;20.87;7.97;;;;;;;-145.69;49.74;72861.22;5074658;28;20234;-77
2022/03/27 01:33:47;;;;;;;29.07;7.53;;;;;;;-145.69;49.08;72821.41;5074592;28;20205;-77
2022/03/27 01:36:23;;;;;;;28.93;7.67;;;;;;;-145.69;48.48;72815.44;5074493;28;20201;-77
2022/03/27 01:38:50;;;;;;;33.87;8.23;;;;;;;-145.69;48.82;72817.44;5073961;28;20191;-76
2022/03/27 01:41:21;;;;;;;26.53;7.53;;;;;;;-145.69;48.27;72805.50;5074335;28;20222;-77
2022/03/27 01:43:48;;;;;;;31.07;8.83;;;;;;;-145.69;47.73;72781.59;5073790;28;20294;-77
2022/03/27 01:46:14;;;;;;;24.90;7.90;;;;;;;-145.69;48.01;72793.56;5074253;28;20234;-77
2022/03/27 01:48:41;;;;;;;29.03;8.43;;;;;;;-145.69;48.61;72815.44;5074041;28;20221;-77
2022/03/27 01:51:09;;;;;;;23.00;8.07;;;;;;;-145.69;48.31;72803.50;5074229;28;20202;-77
2022/03/27 01:53:42;;;;;;;24.20;8.20;;;;;;;-145.69;47.93;72771.66;5074150;28;20204;-77
2022/03/27 01:56:13;;;;;;;19.90;7.80;;;;;;;-145.69;48.41;72799.53;5073766;28;20201;-77
2022/03/27 01:58:42;;;;;;;21.57;8.03;;;;;;;-145.69;48.32;72815.44;5074095;28;20199;-77
2022/03/27 02:01:10;;;;;;;20.83;7.80;;;;;;;-145.69;48.50;72795.53;5073916;28;20561;-77
2022/03/27 02:03:36;;;;;;;23.47;7.93;;;;;;;-145.69;48.53;72785.59;5073841;28;20256;-77
2022/03/27 02:06:05;;;;;;;23.00;7.77;;;;;;;-145.69;48.49;72791.56;5073773;28;20235;-77
2022/03/27 02:08:33;;;;;;;21.80;7.67;;;;;;;-145.69;49.30;72815.44;5073489;28;20211;-77
2022/03/27 02:11:02;;;;;;;25.83;7.97;;;;;;;-145.69;49.25;72803.50;5074006;28;20203;-77
2022/03/27 02:13:30;;;;;;;30.63;7.77;;;;;;;-145.69;49.66;72811.47;5073431;28;20187;-77
2022/03/27 02:16:03;;;;;;;21.27;7.17;;;;;;;-145.69;49.38;72801.50;5073413;28;20317;-77
2022/03/27 02:18:42;;;;;;;30.47;7.80;;;;;;;-145.69;48.72;72791.56;5073543;28;20203;-77
2022/03/27 02:21:12;;;;;;;23.60;7.40;;;;;;;-145.69;48.96;72787.56;5073460;28;20203;-77
2022/03/27 02:23:38;;;;;;;26.90;6.40;;;;;;;-145.69;48.81;72783.59;5073614;28;20557;-77
2022/03/27 02:26:06;;;;;;;20.53;7.20;;;;;;;-145.69;49.36;72811.47;5073195;28;20226;-77
2022/03/27 02:28:38;;;;;;;25.70;7.80;;;;;;;-145.69;49.63;72813.47;5073314;28;20202;-77
2022/03/27 02:31:04;;;;;;;20.47;6.77;;;;;;;-145.69;50.45;72831.38;5073558;28;20226;-77
2022/03/27 02:33:41;;;;;;;20.57;6.93;;;;;;;-145.69;49.66;72805.50;5072443;28;20198;-77
2022/03/27 02:36:08;;;;;;;27.33;7.80;;;;;;;-145.69;49.77;72841.31;5073022;28;20706;-77
2022/03/27 02:38:36;;;;;;;27.00;7.00;;;;;;;-145.69;51.16;72879.16;5072817;28;20230;-78
2022/03/27 02:41:03;;;;;;;19.67;6.50;;;;;;;-145.69;50.82;72855.25;5073406;28;20207;-77
2022/03/27 02:43:32;;;;;;;22.53;6.93;;;;;;;-145.69;51.30;72887.09;5073207;28;20207;-77
2022/03/27 02:45:58;;;;;;;31.93;6.57;;;;;;;-145.69;52.64;72914.97;5073054;28;20292;-77
2022/03/27 02:48:30;;;;;;;20.33;6.80;;;;;;;-145.69;56.00;72962.75;5073275;28;20199;-77
2022/03/27 02:50:59;;;;;;;20.08;7.47;;;;;;;-145.69;56.89;72976.69;5072886;28;20442;-77
2022/03/27 02:53:28;;;;;;;26.17;7.03;;;;;;;-145.69;58.71;73034.41;5073030;28;20714;-78
2022/03/27 02:55:59;;;;;;;30.50;7.27;;;;;;;-145.69;60.79;73062.28;5073101;28;20203;-78
2022/03/27 02:58:29;;;;;;;22.60;7.53;;;;;;;-145.69;63.04;73110.06;5073120;28;20252;-77
2022/03/27 03:00:59;;;;;;;24.83;7.43;;;;;;;-145.69;63.14;73133.94;5073272;28;20199;-77
2022/03/27 03:03:26;;;;;;;17.37;7.00;;;;;;;-145.69;63.53;73169.78;5073150;28;20205;-77
2022/03/27 03:05:55;;;;;;;23.37;7.70;;;;;;;-145.69;65.98;73179.75;5072967;28;20222;-77
2022/03/27 03:08:21;;;;;;;18.67;6.97;;;;;;;-145.69;67.23;73205.63;5072778;28;20191;-77
2022/03/27 03:10:56;;;;;;;24.13;6.90;;;;;;;-145.69;68.49;73229.50;5072884;28;20199;-77
2022/03/27 03:13:25;;;;;;;21.13;7.77;;;;;;;-145.69;69.09;73257.38;5068904;28;20194;-78
2022/03/27 03:16:05;;;;;;;21.43;6.60;;;;;;;-145.69;70.35;73277.28;5052464;28;20583;-77
2022/03/27 03:18:34;;;;;;;28.20;7.83;;;;;;;-145.69;71.40;73309.13;5052771;28;20722;-77
2022/03/27 03:21:03;;;;;;;28.73;8.23;;;;;;;-145.69;71.31;73317.09;5052819;28;20204;-77
2022/03/27 03:23:33;;;;;;;24.77;7.50;;;;;;;-145.69;73.70;73342.97;5052501;28;20782;-78
2022/03/27 03:26:02;;;;;;;20.50;7.83;;;;;;;-145.69;74.81;73364.88;5052834;28;20258;-77
2022/03/27 03:28:29;;;;;;;20.80;7.27;;;;;;;-145.69;75.49;73352.94;5052940;28;20226;-77
2022/03/27 03:30:55;;;;;;;18.73;6.77;;;;;;;-145.69;76.09;73390.75;5072388;28;20722;-77
2022/03/27 03:33:26;;;;;;;24.37;7.40;;;;;;;-145.69;76.56;73408.69;5072886;28;20205;-77
2022/03/27 03:35:55;;;;;;;21.03;6.83;;;;;;;-145.69;77.07;73434.56;5072613;28;20212;-77
2022/03/27 03:38:24;;;;;;;23.30;7.80;;;;;;;-145.69;78.63;73456.47;5072805;28;20589;-77
2022/03/27 03:40:53;;;;;;;22.73;7.60;;;;;;;-145.69;79.14;73466.41;5072878;28;20206;-77
2022/03/27 03:43:25;;;;;;;20.00;8.00;;;;;;;-145.69;81.21;73484.34;5072557;28;20656;-77
2022/03/27 03:45:52;;;;;;;30.37;7.23;;;;;;;-145.69;82.83;73488.31;5075238;28;20288;-77
2022/03/27 03:48:19;;;;;;;23.77;8.33;;;;;;;-145.69;83.34;73482.34;5076370;28;20234;-77
2022/03/27 03:50:46;;;;;;;22.87;7.70;;;;;;;-145.69;83.22;73492.28;5076655;28;20230;-77
2022/03/27 03:53:13;;;;;;;23.33;7.60;;;;;;;-145.69;83.55;73510.22;5076690;28;20206;-78
2022/03/27 03:55:40;;;;;;;24.67;7.90;;;;;;;-145.69;86.07;73528.13;5076213;28;20677;-77
2022/03/27 03:58:09;;;;;;;27.17;8.27;;;;;;;-145.69;86.34;73540.06;5076604;28;20199;-77
2022/03/27 04:00:38;;;;;;;26.23;7.57;;;;;;;-145.69;87.72;73510.22;5075767;28;20187;-77
2022/03/27 04:03:06;;;;;;;31.30;9.33;;;;;;;-145.69;87.06;73518.19;5056303;28;20199;-77
2022/03/27 04:05:32;;;;;;;23.00;7.77;;;;;;;-145.69;87.35;73508.22;5056264;28;20237;-77
2022/03/27 04:08:03;;;;;;;28.93;9.03;;;;;;;-145.69;87.19;73534.09;5055869;28;20570;-77
2022/03/27 04:10:30;;;;;;;23.80;8.60;;;;;;;-145.69;86.85;73548.03;5056336;28;20219;-77
2022/03/27 04:12:59;;;;;;;23.73;8.70;;;;;;;-145.69;87.65;73548.03;5055955;28;20200;-77
2022/03/27 04:15:25;;;;;;;24.43;8.63;;;;;;;-145.69;88.09;73560.00;5055593;28;20261;-77
2022/03/27 04:17:52;;;;;;;24.53;8.33;;;;;;;-145.69;88.27;73524.16;5055868;28;20210;-77
2022/03/27 04:20:19;;;;;;;25.03;7.87;;;;;;;-145.69;91.46;73528.13;5056243;28;20234;-77
2022/03/27 04:22:46;;;;;;;26.33;9.03;;;;;;;-145.69;90.38;73504.25;5055893;28;20222;-76
2022/03/27 04:25:16;;;;;;;26.53;7.73;;;;;;;-145.69;91.32;73516.19;5056067;28;20206;-76
2022/03/27 04:27:47;;;;;;;19.93;7.47;;;;;;;-145.69;90.68;73544.06;5055802;28;20326;-77
2022/03/27 04:30:13;;;;;;;28.20;8.00;;;;;;;-145.69;92.05;73560.00;5071486;28;20241;-76
2022/03/27 04:32:41;;;;;;;33.70;8.60;;;;;;;-145.69;91.85;73573.94;5075991;28;20321;-77
2022/03/27 04:35:10;;;;;;;25.37;8.80;;;;;;;-145.69;91.61;73579.91;5075849;28;20206;-77
2022/03/27 04:37:43;;;;;;;27.67;9.03;;;;;;;-145.69;92.08;73575.91;5075822;28;20237;-77
2022/03/27 04:40:10;;;;;;;24.20;7.93;;;;;;;-145.69;92.61;73579.91;5075580;28;20285;-77
2022/03/27 04:42:39;;;;;;;24.23;8.83;;;;;;;-145.69;92.54;73542.06;5075278;28;20203;-77
2022/03/27 04:45:10;;;;;;;29.83;8.33;;;;;;;-145.69;91.91;73532.13;5075977;28;20227;-77
2022/03/27 04:47:38;;;;;;;25.33;7.93;;;;;;;-145.69;91.90;73504.25;5075314;28;20280;-77
2022/03/27 04:50:13;;;;;;;26.10;8.03;;;;;;;-145.69;92.44;73522.16;5075250;28;20277;-77
2022/03/27 04:52:44;;;;;;;23.87;8.23;;;;;;;-145.69;92.18;73514.19;5075223;28;20657;-77
2022/03/27 04:55:12;;;;;;;25.23;8.10;;;;;;;-145.69;92.63;73530.13;5075300;28;20210;-77
2022/03/27 04:57:43;;;;;;;25.93;8.17;;;;;;;-145.69;93.63;73520.16;5074619;28;20294;-77
2022/03/27 05:00:17;;;;;;;24.20;7.33;;;;;;;-145.69;95.27;73522.16;5075214;28;20195;-77
2022/03/27 05:02:47;;;;;;;25.57;7.80;;;;;;;-145.69;94.62;73532.13;5075376;28;20226;-77
2022/03/27 05:05:15;;;;;;;25.83;8.23;;;;;;;-145.69;95.29;73524.16;5074998;28;20611;-77
2022/03/27 05:07:46;;;;;;;21.80;7.50;;;;;;;-145.69;96.28;73512.22;5075293;28;20227;-76
2022/03/27 05:10:14;;;;;;;27.50;8.03;;;;;;;-145.69;95.15;73516.19;5075005;28;20214;-77
2022/03/27 05:12:45;;;;;;;26.80;8.67;;;;;;;-145.69;95.08;73514.19;5075082;28;20203;-77
2022/03/27 05:15:12;;;;;;;27.43;9.03;;;;;;;-145.69;91.14;73480.34;5074895;28;20660;-77
2022/03/27 05:17:48;;;;;;;24.43;8.23;;;;;;;-145.69;91.28;73456.47;5074867;28;20712;-77
2022/03/27 05:20:18;;;;;;;25.83;8.53;;;;;;;-145.69;87.37;73396.72;5074539;28;20222;-76
2022/03/27 05:22:44;;;;;;;28.53;8.60;;;;;;;-145.69;80.27;73257.38;5074737;28;20562;-76
2022/03/27 05:25:17;;;;;;;29.20;9.17;;;;;;;-145.69;78.28;73213.56;5060170;28;20288;-76
2022/03/27 05:27:56;;;;;;;26.23;8.53;;;;;;;-145.69;77.66;73223.53;5054670;28;20231;-76
2022/03/27 05:30:31;;;;;;;25.53;8.07;;;;;;;-145.69;77.04;73207.59;5070533;28;20205;-76
2022/03/27 05:33:03;;;;;;;28.37;8.57;;;;;;;-145.69;76.17;73185.72;5074745;28;20259;-77
2022/03/27 05:35:33;;;;;;;27.20;8.27;;;;;;;-145.69;77.50;73215.56;5074661;28;20229;-77
2022/03/27 05:38:02;;;;;;;27.97;9.03;;;;;;;-145.69;76.41;73209.59;5074558;28;20199;-76
2022/03/27 05:40:35;;;;;;;28.00;8.97;;;;;;;-145.69;73.87;73151.88;5074676;28;20203;-76
2022/03/27 05:43:05;;;;;;;30.70;8.53;;;;;;;-145.69;74.62;73159.84;5074018;28;20580;-77
2022/03/27 05:45:31;;;;;;;26.77;8.30;;;;;;;-145.69;73.12;73129.97;5074535;28;20252;-77
2022/03/27 05:47:58;;;;;;;27.87;9.40;;;;;;;-145.69;73.21;73141.91;5074343;28;20343;-78
2022/03/27 05:50:25;;;;;;;23.90;7.73;;;;;;;-145.69;68.41;73028.44;5073866;28;20596;-76
2022/03/27 05:52:55;;;;;;;36.80;8.53;;;;;;;-145.69;67.87;73034.41;5074157;28;20680;-77
2022/03/27 05:55:26;;;;;;;27.83;8.90;;;;;;;-145.69;69.11;73066.25;5073668;28;20191;-76
2022/03/27 06:00:39;;;;;;;29.70;9.00;;;;;;;-145.69;69.76;73068.25;5052995;28;20211;-77
2022/03/27 06:03:08;;;;;;;26.20;8.23;;;;;;;-145.69;70.59;73084.19;5053528;28;20642;-78
2022/03/27 06:05:36;;;;;;;29.73;9.10;;;;;;;-145.69;71.23;73122.00;5053977;28;20211;-77
2022/03/27 06:08:03;;;;;;;24.83;8.73;;;;;;;-145.69;72.76;73157.84;5052843;28;20250;-78
2022/03/27 06:10:38;;;;;;;23.30;8.47;;;;;;;-145.69;74.24;73157.84;5053845;28;20235;-78
2022/03/27 06:13:13;;;;;;;30.70;9.23;;;;;;;-145.69;74.88;73171.78;5053707;28;20199;-78
2022/03/27 06:15:41;;;;;;;29.30;8.57;;;;;;;-145.69;74.94;73201.63;5053705;28;20234;-77
2022/03/27 06:18:13;;;;;;;22.63;8.73;;;;;;;-145.69;76.40;73217.56;5053144;28;20203;-77
2022/03/27 06:20:43;;;;;;;24.10;8.00;;;;;;;-145.69;77.17;73201.63;5053738;28;20211;-77
2022/03/27 06:23:09;;;;;;;33.53;9.17;;;;;;;-145.69;75.79;73189.69;5053661;28;20209;-78
2022/03/27 06:25:39;;;;;;;25.83;8.70;;;;;;;-145.69;73.27;73137.94;5053593;28;20199;-77
2022/03/27 06:28:10;;;;;;;28.43;8.90;;;;;;;-145.69;74.29;73124.00;5053383;28;20263;-77
2022/03/27 06:30:36;;;;;;;29.13;10.50;;;;;;;-145.69;75.76;73133.94;5073115;28;20589;-78
2022/03/27 06:33:06;;;;;;;41.93;10.63;;;;;;;-145.69;73.38;73114.03;5073118;28;20689;-78
2022/03/27 06:35:37;;;;;;;27.10;8.93;;;;;;;-145.69;74.07;73116.03;5073603;28;20557;-77
2022/03/27 06:38:04;;;;;;;25.63;8.50;;;;;;;-145.69;73.38;73098.13;5072875;28;20207;-78
2022/03/27 06:40:34;;;;;;;25.47;8.90;;;;;;;-145.69;73.24;73098.13;5073221;28;20657;-78
2022/03/27 06:43:02;;;;;;;28.03;9.77;;;;;;;-145.69;71.47;73082.19;5073160;28;20202;-78
2022/03/27 06:45:38;;;;;;;27.90;9.30;;;;;;;-145.69;73.05;73082.19;5073132;28;20289;-78
2022/03/27 06:48:07;;;;;;;27.90;9.00;;;;;;;-145.69;72.90;73090.16;5073205;28;20230;-78
2022/03/27 06:50:37;;;;;;;26.63;11.07;;;;;;;-145.69;72.98;73082.19;5072213;28;20438;-78
2022/03/27 06:53:07;;;;;;;33.57;9.93;;;;;;;-145.69;74.06;73068.25;5073039;28;20206;-78
2022/03/27 06:55:36;;;;;;;22.10;9.27;;;;;;;-145.69;72.02;73042.38;5073008;28;20581;-77
2022/03/27 06:58:03;;;;;;;28.53;10.40;;;;;;;-145.69;73.35;73042.38;5072489;28;20394;-78
2022/03/27 07:03:14;;;;;;;25.93;9.10;;;;;;;-145.69;72.91;73014.50;5072460;28;20596;-78
2022/03/27 07:05:42;;;;;;;27.17;8.80;;;;;;;-145.69;70.86;72998.59;5072919;28;20650;-77
2022/03/27 07:08:12;;;;;;;24.47;8.17;;;;;;;-145.69;69.70;72958.78;5072760;28;20233;-77
2022/03/27 07:10:41;;;;;;;25.70;8.80;;;;;;;-145.69;71.65;72926.91;5072337;28;20297;-77
2022/03/27 07:13:09;;;;;;;29.77;8.53;;;;;;;-145.69;68.96;72913.00;5072862;28;20203;-78
2022/03/27 07:15:40;;;;;;;24.50;8.57;;;;;;;-145.69;71.37;72871.19;5072336;28;20231;-77
2022/03/27 07:18:07;;;;;;;31.43;8.97;;;;;;;-145.69;68.37;72855.25;5072738;28;20608;-78
2022/03/27 07:20:37;;;;;;;26.27;8.60;;;;;;;-145.69;66.71;72839.34;5067737;28;20219;-79
2022/03/27 07:23:05;;;;;;;32.50;9.00;;;;;;;-145.69;69.44;72821.41;5072633;28;20198;-77
2022/03/27 07:25:34;;;;;;;25.60;9.27;;;;;;;-145.69;64.99;72807.47;5072801;28;20681;-77
2022/03/27 07:28:01;;;;;;;23.90;8.33;;;;;;;-145.69;65.83;72783.59;5072170;28;20317;-77
2022/03/27 07:30:27;;;;;;;29.57;9.03;;;;;;;-145.69;66.21;72747.78;5072717;28;20289;-77
2022/03/27 07:32:54;;;;;;;24.57;9.30;;;;;;;-145.69;64.78;72733.84;5072495;28;20206;-78
2022/03/27 07:35:21;;;;;;;26.80;10.23;;;;;;;-145.69;64.79;72725.88;5072670;28;20220;-78
2022/03/27 07:37:52;;;;;;;41.00;10.37;;;;;;;-145.69;63.43;72711.94;5072779;28;20202;-79
2022/03/27 07:40:20;;;;;;;28.70;11.23;;;;;;;-145.69;63.54;72715.91;5072525;28;20194;-79
2022/03/27 07:42:50;;;;;;;24.90;9.13;;;;;;;-145.69;64.41;72701.97;5072678;28;20608;-79
2022/03/27 07:45:19;;;;;;;29.13;9.53;;;;;;;-145.69;64.02;72696.00;5072219;28;20661;-79
2022/03/27 07:47:49;;;;;;;28.90;10.00;;;;;;;-145.69;66.68;72692.03;5072430;28;20272;-79
2022/03/27 07:50:19;;;;;;;31.20;9.63;;;;;;;-145.69;64.64;72664.16;5072285;28;20209;-79
2022/03/27 07:52:46;;;;;;;31.67;10.40;;;;;;;-145.69;64.60;72682.09;5072624;28;20198;-77
2022/03/27 07:55:16;;;;;;;30.00;9.73;;;;;;;-145.69;63.79;72670.13;5072287;28;20264;-78
2022/03/27 07:57:43;;;;;;;28.50;10.17;;;;;;;-145.69;63.17;72664.16;5072004;28;20234;-77
2022/03/27 08:00:11;;;;;;;23.80;10.57;;;;;;;-145.69;62.24;72656.22;5072266;28;20199;-77
2022/03/27 08:02:39;;;;;;;30.03;11.40;;;;;;;-145.69;63.92;72634.31;5072278;28;20203;-77
2022/03/27 08:05:06;;;;;;;30.30;9.80;;;;;;;-145.69;62.55;72638.28;5072446;28;20195;-78
2022/03/27 08:07:33;;;;;;;34.50;11.10;;;;;;;-145.69;64.86;72638.28;5072141;28;20272;-77
2022/03/27 08:10:00;;;;;;;27.60;10.73;;;;;;;-145.69;60.71;72612.41;5072152;28;20294;-77
2022/03/27 08:12:28;;;;;;;31.07;11.00;;;;;;;-145.69;62.76;72588.53;5071940;28;20561;-77
2022/03/27 08:14:55;;;;;;;29.67;10.47;;;;;;;-145.69;60.14;72594.50;5072010;28;20280;-78
2022/03/27 08:17:21;;;;;;;28.47;10.60;;;;;;;-145.69;64.44;72564.66;5071884;28;20202;-78
2022/03/27 08:19:49;;;;;;;29.30;10.83;;;;;;;-145.69;63.99;72556.69;5072136;28;20195;-77
2022/03/27 08:22:16;;;;;;;31.33;10.87;;;;;;;-145.69;59.45;72552.69;5072373;28;20565;-77
2022/03/27 08:24:43;;;;;;;38.37;11.30;;;;;;;-145.69;58.68;72548.72;5072321;28;20210;-78
2022/03/27 08:27:08;;;;;;;35.67;10.43;;;;;;;-145.69;60.46;72520.84;5072079;28;20704;-77
2022/03/27 08:29:38;;;;;;;36.47;11.90;;;;;;;-145.69;58.22;72520.84;5071454;28;20207;-77
2022/03/27 08:32:07;;;;;;;38.03;11.30;;;;;;;-145.69;59.86;72500.94;5073603;28;20214;-78
2022/03/27 08:34:35;;;;;;;29.30;11.57;;;;;;;-145.69;58.41;72473.09;5075715;28;20199;-78
2022/03/27 08:37:03;;;;;;;30.97;10.63;;;;;;;-145.69;57.89;72465.13;5075710;28;20195;-77
2022/03/27 08:39:30;;;;;;;30.03;10.47;;;;;;;-145.69;58.48;72489.00;5075624;28;20562;-78
2022/03/27 08:41:57;;;;;;;30.50;11.03;;;;;;;-145.69;61.24;72459.16;5075490;28;20587;-77
2022/03/27 08:44:26;;;;;;;32.00;10.53;;;;;;;-145.69;57.35;72445.22;5075390;28;20207;-78
2022/03/27 08:46:55;;;;;;;30.50;10.53;;;;;;;-145.69;63.60;72451.19;5075709;28;20202;-77
2022/03/27 08:49:35;;;;;;;28.00;10.27;;;;;;;-145.69;58.76;72415.38;5075393;28;20203;-78
2022/03/27 08:52:09;;;;;;;37.73;11.73;;;;;;;-145.69;56.88;72413.38;5075143;28;20305;-78
2022/03/27 08:54:41;;;;;;;33.40;10.93;;;;;;;-145.69;56.62;72401.44;5075136;28;20201;-78
2022/03/27 08:57:14;;;;;;;28.87;10.57;;;;;;;-145.69;55.79;72383.53;5075647;28;20201;-78
2022/03/27 08:59:43;;;;;;;28.77;10.37;;;;;;;-145.69;57.12;72373.56;5075227;28;20206;-78
2022/03/27 09:02:13;;;;;;;30.43;11.27;;;;;;;-145.69;55.32;72359.63;5075111;28;20195;-78
2022/03/27 09:04:42;;;;;;;33.27;10.17;;;;;;;-145.69;57.42;72337.75;5075062;28;20199;-79
2022/03/27 09:07:08;;;;;;;35.73;10.40;;;;;;;-145.69;54.42;72319.81;5075078;28;20198;-79
2022/03/27 09:09:35;;;;;;;27.17;10.57;;;;;;;-145.69;55.21;72321.81;5074857;28;20207;-79
2022/03/27 09:12:04;;;;;;;30.73;10.63;;;;;;;-145.69;55.79;72307.88;5075260;28;20198;-79
2022/03/27 09:14:33;;;;;;;28.33;10.77;;;;;;;-145.69;55.59;72325.81;5074720;28;20225;-80
2022/03/27 09:17:04;;;;;;;23.43;10.60;;;;;;;-145.69;57.70;72305.91;5070273;28;20230;-83
2022/03/27 09:19:39;;;;;;;37.00;10.83;;;;;;;-145.69;58.65;72297.94;5054758;28;20199;-81
2022/03/27 09:22:14;;;;;;;37.93;11.97;;;;;;;-145.69;58.75;72280.03;5057314;28;20264;-81
2022/03/27 09:24:40;;;;;;;33.43;11.63;;;;;;;-145.69;54.97;72293.94;5054704;28;20657;-81
2022/03/27 09:27:07;;;;;;;32.70;11.10;;;;;;;-145.69;56.53;72289.97;5055224;28;20265;-77
2022/03/27 09:29:55;;;;;;;33.50;10.60;;;;;;;-145.69;53.71;72289.97;5066767;28;20195;-79
2022/03/27 09:32:30;;;;;;;28.80;10.27;;;;;;;-145.69;58.03;72226.28;5074225;28;20684;-79
2022/03/27 09:35:04;;;;;;;31.13;10.07;;;;;;;-145.69;53.48;72212.34;5074407;28;20201;-79
2022/03/27 09:37:34;;;;;;;24.57;9.93;;;;;;;-145.69;51.82;72208.38;5074650;28;20206;-78
2022/03/27 09:40:01;;;;;;;29.33;10.63;;;;;;;-145.69;53.63;72214.34;5074316;28;20209;-78
2022/03/27 09:42:28;;;;;;;32.07;11.50;;;;;;;-145.69;53.09;72210.38;5074027;28;20642;-78
2022/03/27 09:45:13;;;;;;;30.60;11.07;;;;;;;-145.69;49.96;72206.38;5074554;28;20203;-78
2022/03/27 09:47:40;;;;;;;25.33;10.57;;;;;;;-145.69;49.35;72202.41;5074204;28;20233;-78
2022/03/27 09:50:10;;;;;;;26.53;10.23;;;;;;;-145.69;49.53;72168.56;5074154;28;20199;-78
2022/03/27 09:52:37;;;;;;;25.97;10.30;;;;;;;-145.69;47.27;72142.69;5074216;28;20234;-79
2022/03/27 09:55:07;;;;;;;31.33;9.63;;;;;;;-145.69;47.07;72146.69;5074148;28;20203;-79
2022/03/27 09:57:35;;;;;;;29.67;11.03;;;;;;;-145.69;48.30;72134.72;5074337;28;20256;-78
2022/03/27 10:00:14;;;;;;;33.30;10.37;;;;;;;-145.69;49.05;72112.84;5073487;28;20199;-79
2022/03/27 10:02:41;;;;;;;29.00;10.27;;;;;;;-145.69;45.86;72104.88;5074049;28;20209;-79
2022/03/27 10:05:10;;;;;;;23.87;9.33;;;;;;;-145.69;46.46;72092.94;5073967;28;20203;-79
2022/03/27 10:07:40;;;;;;;27.27;10.13;;;;;;;-145.69;47.15;72081.00;5073203;28;20221;-79
2022/03/27 10:10:09;;;;;;;29.53;10.23;;;;;;;-145.69;44.91;72098.91;5074067;28;20229;-79
2022/03/27 10:12:37;;;;;;;33.07;10.97;;;;;;;-145.69;45.05;72082.97;5072799;28;20203;-77
2022/03/27 10:15:06;;;;;;;22.80;9.80;;;;;;;-145.69;45.94;72071.03;5073671;28;20235;-77
2022/03/27 10:17:35;;;;;;;27.63;10.47;;;;;;;-145.69;44.84;72057.13;5073855;28;20256;-79
2022/03/27 10:20:07;;;;;;;33.20;11.27;;;;;;;-145.69;45.32;72051.16;5073510;28;20597;-77
2022/03/27 10:22:39;;;;;;;36.10;10.83;;;;;;;-145.69;45.92;71997.41;5073602;28;20662;-78
2022/03/27 10:25:09;;;;;;;23.97;9.87;;;;;;;-145.69;45.54;71995.41;5073672;28;20202;-78
2022/03/27 10:27:36;;;;;;;25.47;10.20;;;;;;;-145.69;45.08;71983.47;5073433;28;20237;-78
2022/03/27 10:30:04;;;;;;;24.73;9.50;;;;;;;-145.69;43.33;71961.59;5073328;28;20206;-78
2022/03/27 10:32:30;;;;;;;25.83;10.33;;;;;;;-145.69;42.51;71969.53;5073256;28;20202;-78
2022/03/27 10:35:07;;;;;;;29.90;10.70;;;;;;;-145.69;42.63;71951.63;5073520;28;20201;-77
2022/03/27 10:37:45;;;;;;;27.53;10.70;;;;;;;-145.69;42.72;71961.59;5073137;28;20237;-78
2022/03/27 10:40:33;;;;;;;28.25;9.63;;;;;;;-145.69;43.39;71905.88;5073362;28;20226;-79
2022/03/27 10:43:05;;;;;;;28.92;10.35;;;;;;;-145.69;46.45;71889.94;5072972;28;20199;-78
2022/03/27 10:45:35;;;;;;;29.45;10.55;;;;;;;-145.69;42.03;71887.94;5073371;28;20293;-78
2022/03/27 10:48:15;;;;;;;24.73;9.70;;;;;;;-145.69;42.99;71880.00;5072793;28;20262;-79
2022/03/27 10:50:49;;;;;;;26.35;9.63;;;;;;;-145.69;41.04;71844.16;5073069;28;20293;-78
2022/03/27 10:53:18;;;;;;;26.35;10.05;;;;;;;-145.69;40.75;71860.09;5072733;28;20207;-79
2022/03/27 10:55:46;;;;;;;26.10;10.32;;;;;;;-145.69;39.82;71858.09;5072722;28;20202;-78
2022/03/27 10:58:35;;;;;;;27.65;10.73;;;;;;;-145.69;40.82;71850.13;5072877;28;20195;-78
2022/03/27 11:01:03;;;;;;;36.47;10.43;;;;;;;-145.69;40.24;71850.13;5073078;28;20283;-78
2022/03/27 11:03:52;;;;;;;32.70;10.02;;;;;;;-145.69;34.28;71798.41;5072933;28;20202;-78
2022/03/27 11:06:26;;;;;;;23.02;8.93;;;;;;;-145.69;35.21;71772.53;5072333;28;20573;-78
2022/03/27 11:08:56;;;;;;;19.98;7.97;;;;;;;-145.69;37.94;71760.59;5072950;28;20221;-78
2022/03/27 11:11:52;;;;;;;27.65;9.80;;;;;;;-145.69;39.65;71724.75;5072932;28;20203;-78
2022/03/27 11:15:00;;;;;;;24.70;10.20;;;;;;;-145.69;37.56;71746.66;5072913;28;20293;-78
2022/03/27 11:17:35;;;;;;;23.25;9.48;;;;;;;-145.69;34.59;71732.72;5073140;28;20209;-78
2022/03/27 11:20:03;;;;;;;30.50;9.32;;;;;;;-145.69;35.54;71756.59;5072619;28;20202;-78
2022/03/27 11:22:44;;;;;;;22.88;9.23;;;;;;;-145.69;32.53;71750.63;5065662;28;20200;-78
2022/03/27 11:25:47;;;;;;;26.42;8.82;;;;;;;-145.69;33.92;71746.66;5052440;28;20198;-78
2022/03/27 11:28:15;;;;;;;21.83;8.80;;;;;;;-145.69;35.05;71692.94;5052727;28;20236;-78